Flight Track Log - Related Links

Times and Time Zones

All times are in EST time to prevent confusion due to time zone crossing. See the UPS802 flight status page for this flight to view local times or setup timezone preferences in your user account.

Time Position Orientation Groundspeed Altitude Reporting Facility
EST Latitude Longitude Course Direction KTS MPH feet Rate Location/Type
Fri 03:37:49 AM 38.1392 -85.7378 183° South 181 208 1,800  Level FAA TRACON SMA TRACON (SMA)
Fri 03:38:29 AM 38.1011 -85.7406 230° Southwest 202 232 3,700 2,143 Climbing FAA TRACON SMA TRACON (SMA)
Fri 03:39:13 AM 38.0725 -85.7844 243° Southwest 227 261 4,800 2,241 Climbing FAA TRACON SMA TRACON (SMA)
Fri 03:39:52 AM 38.0519 -85.8364 252° West 270 311 6,800 3,273 Climbing FAA TRACON SMA TRACON (SMA)
Fri 03:40:30 AM 38.0375 -85.8925 274° West 275 316 9,000 3,038 Climbing FAA TRACON SMA TRACON (SMA)
Fri 03:41:11 AM 38.0408 -85.9600 287° West 278 320 10,800 2,025 Climbing FAA TRACON SMA TRACON (SMA)
Fri 03:41:50 AM 38.0561 -86.0256 286° West 314 361 11,700 2,127 Climbing FAA TRACON SMA TRACON (SMA)
Fri 03:42:30 AM 38.0739 -86.1064 284° West 346 398 13,600 2,780 Climbing FAA TRACON SMA TRACON (SMA)
Fri 03:43:12 AM 38.0903 -86.1908 283° West 356 410 15,500 2,700 Climbing FAA TRACON SMA TRACON (SMA)
Fri 03:43:50 AM 38.1044 -86.2675 282° West 364 419 17,200 2,462 Climbing FAA TRACON SMA TRACON (SMA)
Fri 03:44:30 AM 38.1194 -86.3550 283° West 367 422 18,700 2,658 Climbing FAA TRACON SMA TRACON (SMA)
Fri 03:45:09 AM 38.1356 -86.4425 283° West 367 422 20,700 2,734 Climbing FAA TRACON SMA TRACON (SMA)
Fri 03:45:49 AM 38.1494 -86.5197 283° West 364 419 22,300 2,250 Climbing FAA TRACON SMA TRACON (SMA)
Fri 03:46:29 AM 38.1647 -86.6069 283° West 366 421 23,700 2,000 Climbing FAA TRACON SMA TRACON (SMA)
Fri 03:47:10 AM 38.1814 -86.6956 282° West 371 427 25,000 1,778 Climbing FAA TRACON SMA TRACON (SMA)
Fri 03:47:50 AM 38.1950 -86.7750 284° West 376 433 26,100 1,500 Climbing FAA TRACON SMA TRACON (SMA)
Fri 03:48:30 AM 38.2122 -86.8658 283° West 381 438 27,000 1,518 Climbing FAA TRACON SMA TRACON (SMA)
Fri 03:49:13 AM 38.2292 -86.9581 277° West 387 445 28,200 1,630 Climbing FAA TRACON SMA TRACON (SMA)
Fri 03:49:51 AM 38.2375 -87.0419 283° West 374 430 29,200 1,837 Climbing Indianapolis Center
Fri 03:50:51 AM 38.2608 -87.1675 282° West 377 434 31,200 955 Climbing Indianapolis Center
Fri 03:52:47 AM 38.3031 -87.4167 283° West 394 453 32,000 273 Climbing Kansas City Center
Fri 03:53:47 AM 38.3253 -87.5442 282° West 384 442 32,000  Level Kansas City Center
Fri 03:54:47 AM 38.3472 -87.6719 281° West 384 442 32,000  Level Kansas City Center
Fri 03:55:47 AM 38.3700 -87.8156 282° West 384 442 32,000  Level Kansas City Center
Fri 03:56:47 AM 38.3917 -87.9461 281° West 384 442 32,000  Level Kansas City Center
Fri 03:57:47 AM 38.4114 -88.0742 281° West 384 442 32,000  Level Kansas City Center
Fri 03:58:47 AM 38.4308 -88.2050 283° West 384 442 32,000  Level Kansas City Center
Fri 03:59:47 AM 38.4542 -88.3356 281° West 384 442 32,000  Level Kansas City Center
Fri 04:00:47 AM 38.4733 -88.4642 282° West 379 436 32,000  Level Kansas City Center
Fri 04:01:47 AM 38.4944 -88.5950 280° West 379 436 32,000  Level Kansas City Center
Fri 04:02:47 AM 38.5106 -88.7078 281° West 369 425 32,000  Level Kansas City Center
Fri 04:03:47 AM 38.5319 -88.8494 283° West 369 425 32,000 50 Level Kansas City Center
Fri 04:04:47 AM 38.5544 -88.9725 281° West 381 438 32,100  Climbing Kansas City Center
Fri 04:05:47 AM 38.5758 -89.1197 280° West 392 451 32,000 -50 Descending Kansas City Center
Fri 04:06:47 AM 38.5939 -89.2461 281° West 392 451 32,000  Level Kansas City Center
Fri 04:07:47 AM 38.6169 -89.3958 281° West 392 451 32,000  Level Kansas City Center
Fri 04:08:47 AM 38.6347 -89.5169 281° West 392 451 32,000  Level Kansas City Center
Fri 04:09:47 AM 38.6575 -89.6642 283° West 387 445 32,000  Level Kansas City Center
Fri 04:10:47 AM 38.6792 -89.7878 280° West 387 445 32,000  Level Kansas City Center
Fri 04:11:47 AM 38.6997 -89.9408 279° West 387 445 32,000  Level Kansas City Center
Fri 04:12:47 AM 38.7172 -90.0756 281° West 387 445 32,000  Level Kansas City Center
Fri 04:13:47 AM 38.7367 -90.2100 280° West 387 445 32,000  Level Kansas City Center
Fri 04:14:47 AM 38.7564 -90.3500 280° West 392 451 32,000  Level Kansas City Center
Fri 04:15:47 AM 38.7756 -90.4847 280° West 386 444 32,000  Level Kansas City Center
Fri 04:16:47 AM 38.7947 -90.6222 280° West 386 444 32,000  Level Kansas City Center
Fri 04:17:47 AM 38.8136 -90.7597 280° West 386 444 32,000  Level Kansas City Center
Fri 04:18:47 AM 38.8325 -90.8975 279° West 392 451 32,000  Level Kansas City Center
Fri 04:19:47 AM 38.8489 -91.0325 281° West 392 451 32,000  Level Kansas City Center
Fri 04:20:47 AM 38.8694 -91.1675 280° West 385 443 32,000  Level Kansas City Center
Fri 04:21:47 AM 38.8878 -91.3081 279° West 391 450 32,000  Level Kansas City Center
Fri 04:22:47 AM 38.9036 -91.4303 280° West 391 450 32,000  Level Kansas City Center
Fri 04:23:47 AM 38.9217 -91.5681 279° West 391 450 32,000  Level Kansas City Center
Fri 04:24:47 AM 38.9372 -91.6956 281° West 397 457 32,000  Level Kansas City Center
Fri 04:25:47 AM 38.9594 -91.8469 278° West 397 457 32,000  Level Kansas City Center
Fri 04:26:47 AM 38.9750 -91.9881 280° West 397 457 32,000  Level Kansas City Center
Fri 04:27:47 AM 38.9947 -92.1289 279° West 402 463 32,000  Level Kansas City Center
Fri 04:28:47 AM 39.0119 -92.2725 278° West 407 468 32,000  Level Kansas City Center
Fri 04:29:47 AM 39.0269 -92.4164 280° West 412 474 32,000  Level Kansas City Center
Fri 04:30:47 AM 39.0461 -92.5575 278° West 411 473 32,000  Level Kansas City Center
Fri 04:31:47 AM 39.0608 -92.7014 280° West 411 473 32,000  Level Kansas City Center
Fri 04:32:47 AM 39.0819 -92.8586 278° West 411 473 32,000  Level Kansas City Center
Fri 04:33:47 AM 39.0986 -93.0108 278° West 427 491 32,000  Level Kansas City Center
Fri 04:34:47 AM 39.1150 -93.1631 279° West 427 491 32,000  Level Kansas City Center
Fri 04:35:47 AM 39.1333 -93.3178 278° West 432 497 32,000  Level Kansas City Center
Fri 04:36:47 AM 39.1492 -93.4728 279° West 438 504 32,000  Level Kansas City Center
Fri 04:37:47 AM 39.1694 -93.6331 278° West 450 518 32,000  Level Kansas City Center
Fri 04:38:47 AM 39.1872 -93.8017 279° West 440 506 32,000  Level Kansas City Center
Fri 04:39:47 AM 39.2067 -93.9594 277° West 445 512 32,000  Level Kansas City Center
Fri 04:40:47 AM 39.2197 -94.1014 278° West 450 518 32,000  Level Kansas City Center
Fri 04:41:47 AM 39.2369 -94.2594 278° West 450 518 32,000  Level Kansas City Center
Fri 04:42:47 AM 39.2558 -94.4364 279° West 450 518 32,000  Level Kansas City Center
Fri 04:43:47 AM 39.2747 -94.5972 275° West 450 518 32,000  Level Kansas City Center
Fri 04:44:47 AM 39.2847 -94.7392 278° West 445 512 32,000  Level Kansas City Center
Fri 04:45:47 AM 39.3053 -94.9192 278° West 450 518 32,000  Level Kansas City Center
Fri 04:46:47 AM 39.3233 -95.0775 277° West 455 524 32,000  Level Kansas City Center
Fri 04:47:47 AM 39.3392 -95.2439 277° West 468 539 32,000  Level Kansas City Center
Fri 04:48:47 AM 39.3547 -95.4025 277° West 459 528 32,000  Level Kansas City Center
Fri 04:49:47 AM 39.3700 -95.5719 277° West 464 534 32,000  Level Kansas City Center
Fri 04:50:47 AM 39.3831 -95.7169 277° West 462 532 32,000  Level Kansas City Center
Fri 04:51:47 AM 39.3981 -95.8839 276° West 462 532 32,000  Level Kansas City Center
Fri 04:52:47 AM 39.4125 -96.0667 278° West 471 542 32,000  Level Kansas City Center
Fri 04:53:47 AM 39.4292 -96.2122 277° West 465 535 32,000  Level Kansas City Center
Fri 04:54:47 AM 39.4436 -96.3764 276° West 465 535 32,000  Level Kansas City Center
Fri 04:55:47 AM 39.4592 -96.5597 276° West 465 535 32,000  Level Kansas City Center
Fri 04:56:47 AM 39.4731 -96.7267 276° West 465 535 32,000  Level Kansas City Center
Fri 04:57:47 AM 39.4864 -96.8939 277° West 465 535 32,000  Level Kansas City Center
Fri 04:58:47 AM 39.5017 -97.0586 276° West 465 535 32,000  Level Kansas City Center
Fri 04:59:47 AM 39.5147 -97.2258 275° West 465 535 32,000  Level Kansas City Center
Fri 05:01:34 AM 39.5342 -97.5281 278° West 463 533 32,000  Level Minneapolis Center
Fri 05:02:34 AM 39.5494 -97.6739 276° West 463 533 32,000  Level Minneapolis Center
Fri 05:03:34 AM 39.5633 -97.8442 275° West 468 539 32,000  Level Minneapolis Center
Fri 05:04:34 AM 39.5750 -98.0169 275° West 476 548 32,000  Level Minneapolis Center
Fri 05:05:34 AM 39.5864 -98.1869 275° West 483 556 32,000  Level Minneapolis Center
Fri 05:06:34 AM 39.5992 -98.3625 274° West 483 556 32,000  Level Minneapolis Center
Fri 05:07:34 AM 39.6078 -98.5378 275° West 488 562 32,000  Level Minneapolis Center
Fri 05:08:34 AM 39.6203 -98.7108 275° West 488 562 32,000  Level Minneapolis Center
Fri 05:09:41 AM 39.6333 -98.9239 275° West 482 555 32,000  Level Denver Center
Fri 05:10:41 AM 39.6444 -99.0956 276° West 482 555 32,000  Level Denver Center
Fri 05:11:41 AM 39.6578 -99.2722 274° West 487 560 32,000  Level Denver Center
Fri 05:12:41 AM 39.6664 -99.4467 275° West 487 560 32,000  Level Denver Center
Fri 05:13:41 AM 39.6772 -99.6239 273° West 487 560 32,000  Level Denver Center
Fri 05:14:41 AM 39.6842 -99.7772 275° West 487 560 32,000  Level Denver Center
Fri 05:15:41 AM 39.6975 -99.9731 274° West 492 566 32,000  Level Denver Center
Fri 05:16:41 AM 39.7064 -100.1289 273° West 492 566 32,000  Level Denver Center
Fri 05:17:41 AM 39.7139 -100.3036 273° West 492 566 32,000  Level Denver Center
Fri 05:18:41 AM 39.7219 -100.4975 273° West 492 566 32,000  Level Denver Center
Fri 05:19:41 AM 39.7289 -100.6753 273° West 492 566 32,000  Level Denver Center
Fri 05:20:41 AM 39.7356 -100.8503 273° West 492 566 32,000  Level Denver Center
Fri 05:21:41 AM 39.7411 -101.0067 274° West 492 566 32,000  Level Denver Center
Fri 05:22:41 AM 39.7503 -101.2031 272° West 497 572 32,000  Level Denver Center
Fri 05:23:50 AM 39.7554 -101.4160 273° West 490 564 32,000  Level FlightAware ADS-B
Fri 05:24:21 AM 39.7585 -101.5040 272° West 491 565 32,000  Level FlightAware ADS-B
Fri 05:24:52 AM 39.7615 -101.5960 273° West 491 565 32,000  Level FlightAware ADS-B
Fri 05:25:22 AM 39.7645 -101.6840 272° West 492 566 32,000  Level FlightAware ADS-B
Fri 05:25:52 AM 39.7674 -101.7760 272° West 493 567 32,000  Level FlightAware ADS-B
Fri 05:26:22 AM 39.7702 -101.8650 272° West 493 567 32,000  Level FlightAware ADS-B
Fri 05:26:53 AM 39.7729 -101.9560 272° West 493 567 32,000  Level FlightAware ADS-B
Fri 05:27:24 AM 39.7756 -102.0480 272° West 493 567 32,000  Level FlightAware ADS-B
Fri 05:27:54 AM 39.7782 -102.1360 272° West 493 567 32,000  Level FlightAware ADS-B
Fri 05:28:26 AM 39.7809 -102.2280 272° West 493 567 32,000  Level FlightAware ADS-B
Fri 05:28:56 AM 39.7834 -102.3170 272° West 494 568 32,000  Level FlightAware ADS-B
Fri 05:29:28 AM 39.7859 -102.4150 272° West 496 571 32,000  Level FlightAware ADS-B
Fri 05:29:59 AM 39.7883 -102.5070 272° West 496 571 32,000  Level FlightAware ADS-B
Fri 05:30:30 AM 39.7906 -102.5960 272° West 496 571 32,000  Level FlightAware ADS-B
Fri 05:31:00 AM 39.7927 -102.6890 272° West 496 571 32,000  Level FlightAware ADS-B
Fri 05:31:30 AM 39.7948 -102.7780 272° West 495 570 32,000 -590 Level FlightAware ADS-B
Fri 05:32:01 AM 39.7969 -102.8700 272° West 487 560 31,400 -2,129 Descending FlightAware ADS-B
Fri 05:32:32 AM 39.7989 -102.9570 272° West 483 556 29,800 -3,049 Descending FlightAware ADS-B
Fri 05:33:02 AM 39.8008 -103.0470 272° West 479 551 28,300 -2,700 Descending FlightAware ADS-B
Fri 05:33:32 AM 39.8025 -103.1320 272° West 468 539 27,100 -2,500 Descending FlightAware ADS-B
Fri 05:34:02 AM 39.8043 -103.2150 271° West 459 528 25,800 -2,500 Descending FlightAware ADS-B
Fri 05:34:32 AM 39.8058 -103.2970 271° West 453 521 24,600 -2,361 Descending FlightAware ADS-B
Fri 05:35:03 AM 39.8073 -103.3790 271° West 448 516 23,400 -2,419 Descending FlightAware ADS-B
Fri 05:35:34 AM 39.8088 -103.4610 271° West 439 505 22,100 -2,459 Descending FlightAware ADS-B
Fri 05:36:04 AM 39.8104 -103.5420 271° West 425 489 20,900 -2,361 Descending FlightAware ADS-B
Fri 05:36:35 AM 39.8116 -103.6170 271° West 415 478 19,700 -2,361 Descending FlightAware ADS-B
Fri 05:37:05 AM 39.8127 -103.6910 271° West 408 470 18,500 -2,754 Descending FlightAware ADS-B
Fri 05:37:36 AM 39.8139 -103.7670 272° West 405 466 16,900 -3,070 Descending FlightAware ADS-B
Fri 05:37:48 AM 39.8147 -103.7960 278° West 403 464 16,300 -3,176 Descending FlightAware ADS-B
Fri 05:37:53 AM 39.8160 -103.8080 283° West 403 464 16,000 -2,743 Descending FlightAware ADS-B
Fri 05:38:23 AM 39.8289 -103.8800 284° West 393 452 14,700 -2,700 Descending FlightAware ADS-B
Fri 05:38:53 AM 39.8416 -103.9480 283° West 385 443 13,300 -2,656 Descending FlightAware ADS-B
Fri 05:39:24 AM 39.8536 -104.0160 282° West 377 434 12,000 -2,459 Descending FlightAware ADS-B
Fri 05:39:54 AM 39.8646 -104.0810 283° West 366 421 10,800 -2,449 Descending FlightAware ADS-B
Fri 05:40:13 AM 39.8716 -104.1210 283° West 362 417 10,000 -1,941 Descending FlightAware ADS-B
Fri 05:40:28 AM 39.8773 -104.1530 282° West 350 403 9,700 -1,000 Descending FlightAware ADS-B
Fri 05:40:43 AM 39.8827 -104.1850 283° West 333 383 9,500 -400 Descending FlightAware ADS-B
Fri 05:40:58 AM 39.8876 -104.2130 283° West 314 361 9,500 194 Level FlightAware ADS-B
Fri 05:41:14 AM 39.8924 -104.2400 283° West 298 343 9,600 182 Climbing FlightAware ADS-B
Fri 05:41:31 AM 39.8975 -104.2690 282° West 290 334 9,600 -188 Level FlightAware ADS-B
Fri 05:41:46 AM 39.9019 -104.2960 282° West 286 329 9,500 -600 Descending FlightAware ADS-B
Fri 05:42:01 AM 39.9061 -104.3210 283° West 276 318 9,300 -1,000 Descending FlightAware ADS-B
Fri 05:42:16 AM 39.9103 -104.3450 283° West 274 315 9,000 -1,355 Descending FlightAware ADS-B
Fri 05:42:32 AM 39.9146 -104.3690 284° West 273 314 8,600 -1,250 Descending FlightAware ADS-B
Fri 05:42:40 AM 39.9170 -104.3820 283° West 266 306 8,500 -500 Descending FlightAware ADS-B
Fri 05:42:56 AM 39.9215 -104.4070 285° West 256 295 8,400 -581 Descending FlightAware ADS-B
Fri 05:43:11 AM 39.9258 -104.4280 284° West 246 283 8,200 -621 Descending FlightAware ADS-B
Fri 05:43:25 AM 39.9296 -104.4480 284° West 236 272 8,100 -682 Descending FlightAware ADS-B
Fri 05:43:55 AM 39.9377 -104.4890 286° West 215 247 7,700 -652 Descending FlightAware ADS-B
Fri 05:44:11 AM 39.9416 -104.5070 286° West 196 226 7,600 -581 Descending FlightAware ADS-B
Fri 05:44:26 AM 39.9452 -104.5230 286° West 185 213 7,400 -1,000 Descending FlightAware ADS-B
Fri 05:44:41 AM 39.9488 -104.5390 287° West 179 206 7,100 -1,161 Descending FlightAware ADS-B
Fri 05:44:57 AM 39.9525 -104.5550 286° West 172 198 6,800 -1,071 Descending FlightAware ADS-B
Fri 05:45:09 AM 39.9554 -104.5680 285° West 169 194 6,600 -632 Descending FlightAware ADS-B
Fri 05:45:16 AM 39.9566 -104.5740 279° West 168 193 6,600  Level FlightAware ADS-B
Fri 05:45:24 AM 39.9576 -104.5820 276° West 167 192 6,600 -353 Level FlightAware ADS-B
Fri 05:45:33 AM 39.9583 -104.5910 271° West 166 191 6,500  Descending FlightAware ADS-B
Fri 05:45:48 AM 39.9585 -104.6060 270° West 167 192 6,600 194 Climbing FlightAware ADS-B
Fri 05:46:04 AM 39.9585 -104.6210 269° West 160 184 6,600  Level FlightAware ADS-B
Fri 05:46:14 AM 39.9584 -104.6310 264° West 155 178 6,600  Level FlightAware ADS-B
Fri 05:46:17 AM 39.9581 -104.6350 255° West 154 177 6,600 -857 Level FlightAware ADS-B
Fri 05:46:21 AM 39.9577 -104.6370 255° West 152 175 6,500 -600 Descending FlightAware ADS-B
Fri 05:46:27 AM 39.9565 -104.6430 244° Southwest 151 174 6,500  Level FlightAware ADS-B
Fri 05:46:31 AM 39.9554 -104.6460 235° Southwest 149 171 6,500 750 Level FlightAware ADS-B
Fri 05:46:35 AM 39.9538 -104.6490 235° Southwest 148 170 6,600  Climbing FlightAware ADS-B
Fri 05:46:39 AM 39.9522 -104.6520 228° Southwest 147 169 6,500 -857 Descending FlightAware ADS-B
Fri 05:46:42 AM 39.9508 -104.6540 206° Southwest 145 167 6,500  Level FlightAware ADS-B
Fri 05:46:45 AM 39.9492 -104.6550 216° Southwest 143 165 6,500  Level FlightAware ADS-B
Fri 05:46:49 AM 39.9471 -104.6570 219° Southwest 142 163 6,500  Level FlightAware ADS-B
Fri 05:46:52 AM 39.9452 -104.6590 202° Southwest 140 161 6,500  Level FlightAware ADS-B
Fri 05:46:55 AM 39.9433 -104.6600 180° South 140 161 6,500  Level FlightAware ADS-B
Fri 05:46:58 AM 39.9414 -104.6600 196° South 139 160 6,500 -857 Level FlightAware ADS-B
Fri 05:47:02 AM 39.9387 -104.6610 164° South 139 160 6,400 -750 Descending FlightAware ADS-B
Fri 05:47:06 AM 39.9360 -104.6600 180° South 139 160 6,400 -545 Level FlightAware ADS-B
Fri 05:47:13 AM 39.9318 -104.6600 172° South 138 159 6,300 -750 Descending FlightAware ADS-B
Fri 05:47:22 AM 39.9261 -104.6590 180° South 136 157 6,200 -667 Descending FlightAware ADS-B
Fri 05:47:31 AM 39.9206 -104.6590 180° South 135 155 6,100 -706 Descending FlightAware ADS-B
Fri 05:47:39 AM 39.9157 -104.6590 180° South 135 155 6,000 -818 Descending FlightAware ADS-B
Fri 05:47:53 AM 39.9068 -104.6590 187° South 134 154 5,800 -750 Descending FlightAware ADS-B
Fri 05:48:03 AM 39.9002 -104.6600 180° South 134 154 5,700 -571 Descending FlightAware ADS-B
Fri 05:48:14 AM 39.8936 -104.6600 180° South 135 155 5,600 -667 Descending FlightAware ADS-B
Fri 05:48:21 AM 39.8892 -104.6600 180° South 135 155 5,500 -947 Descending FlightAware ADS-B
Fri 05:48:33 AM 39.8815 -104.6600 180° South 135 155 5,300 -692 Descending FlightAware ADS-B
Fri 05:48:47 AM 39.8727 -104.6600 180° South 135 155 5,200 -667 Descending FlightAware ADS-B
Fri 05:49:00 AM 39.8646 -104.6600 180° South 131 151 5,000 -818 Descending FlightAware ADS-B
Fri 05:49:09 AM 39.8592 -104.6600 180° South 132 152 4,900 -667 Descending FlightAware ADS-B

Login

Don't have an account? Register now (free) for customized features, flight alerts, and more!